Time;durP1;ratioP1;P1;durP2;ratioP2;P2;SDS_P1;SDS_P2;PMS_P1;PMS_P2;Temp;Humidity;BMP_temperature;BMP_pressure;BME280_temperature;BME280_humidity;BME280_pressure;Samples;Min_cycle;Max_cycle;Signal;HPM_P1;HPM_P2
2023/09/08 00:02:06;;;;;;;13.32;11.52;;;;;;;20.45;100.00;101701.44;5088507;28;20110;-63
2023/09/08 00:04:32;;;;;;;14.10;11.25;;;;;;;20.44;100.00;101696.16;5088303;28;20065;-62
2023/09/08 00:06:58;;;;;;;17.00;12.02;;;;;;;20.44;100.00;101697.00;5087876;28;20032;-63
2023/09/08 00:09:23;;;;;;;18.33;12.63;;;;;;;20.41;100.00;101697.19;5077527;28;20032;-64
2023/09/08 00:11:49;;;;;;;17.73;11.73;;;;;;;20.38;100.00;101702.72;5083757;28;20039;-65
2023/09/08 00:14:14;;;;;;;11.73;10.52;;;;;;;20.23;100.00;101706.38;5089221;28;20016;-63
2023/09/08 00:16:42;;;;;;;13.27;11.55;;;;;;;20.29;100.00;101708.69;5087365;28;20024;-62
2023/09/08 00:19:08;;;;;;;12.37;10.90;;;;;;;20.28;100.00;101710.50;5088946;28;20031;-62
2023/09/08 00:21:33;;;;;;;12.82;10.63;;;;;;;20.25;100.00;101710.66;5075167;28;20017;-60
2023/09/08 00:24:00;;;;;;;15.63;12.27;;;;;;;20.22;100.00;101721.56;5067682;28;20024;-63
2023/09/08 00:26:26;;;;;;;14.07;11.10;;;;;;;20.15;100.00;101721.09;5067833;28;20600;-62
2023/09/08 00:28:51;;;;;;;13.07;11.10;;;;;;;20.11;100.00;101721.38;5067794;28;20028;-61
2023/09/08 00:31:16;;;;;;;15.18;11.98;;;;;;;20.08;100.00;101719.75;5073775;28;20047;-61
2023/09/08 00:33:43;;;;;;;18.38;11.82;;;;;;;20.06;100.00;101721.63;5088741;28;20885;-59
2023/09/08 00:36:09;;;;;;;15.45;11.65;;;;;;;20.00;100.00;101719.28;5055834;28;20032;-62
2023/09/08 00:38:34;;;;;;;19.73;11.95;;;;;;;19.96;100.00;101710.63;5088096;28;20051;-64
2023/09/08 00:41:00;;;;;;;18.38;12.30;;;;;;;19.97;100.00;101716.81;5084634;28;20423;-63
2023/09/08 00:43:26;;;;;;;17.27;12.25;;;;;;;19.95;100.00;101720.44;5068494;28;20399;-62
2023/09/08 00:45:52;;;;;;;16.45;12.85;;;;;;;20.00;100.00;101721.97;5068047;28;20537;-63
2023/09/08 00:48:18;;;;;;;18.52;12.10;;;;;;;20.02;100.00;101720.09;5067944;28;20165;-57
2023/09/08 00:50:43;;;;;;;18.42;12.90;;;;;;;19.99;100.00;101715.78;5066642;28;20563;-64
2023/09/08 00:53:09;;;;;;;15.73;11.60;;;;;;;19.98;100.00;101713.19;5066719;28;20481;-64
2023/09/08 00:55:35;;;;;;;14.23;11.15;;;;;;;19.97;100.00;101719.47;5065720;28;20024;-61
2023/09/08 00:58:01;;;;;;;19.35;12.25;;;;;;;19.94;100.00;101717.84;5079379;28;20092;-61
2023/09/08 01:00:26;;;;;;;18.58;12.23;;;;;;;19.92;100.00;101714.41;5086487;28;20430;-61
2023/09/08 01:02:52;;;;;;;15.15;11.30;;;;;;;19.90;100.00;101711.81;5070854;28;20028;-61
2023/09/08 01:05:17;;;;;;;15.60;12.18;;;;;;;19.87;100.00;101714.66;5067857;28;20101;-60
2023/09/08 01:07:44;;;;;;;15.07;11.98;;;;;;;19.83;100.00;101716.69;5082172;28;20115;-63
2023/09/08 01:10:09;;;;;;;15.02;12.10;;;;;;;19.78;100.00;101712.56;5085698;28;20035;-62
2023/09/08 01:12:35;;;;;;;16.13;11.00;;;;;;;19.77;100.00;101700.13;5067094;28;20060;-64
2023/09/08 01:15:01;;;;;;;16.00;12.15;;;;;;;19.74;100.00;101709.22;5067244;28;20020;-60
2023/09/08 01:17:27;;;;;;;17.80;11.68;;;;;;;19.70;100.00;101705.88;5077934;28;20025;-63
2023/09/08 01:19:55;;;;;;;15.98;12.38;;;;;;;19.69;100.00;101706.78;5088343;28;20062;-58
2023/09/08 01:22:35;;;;;;;20.63;12.27;;;;;;;19.65;100.00;101709.75;5078539;28;20613;-62
2023/09/08 01:25:21;;;;;;;14.43;12.52;;;;;;;19.60;100.00;101711.84;5066952;28;20031;-60
2023/09/08 01:27:50;;;;;;;15.70;11.88;;;;;;;19.62;100.00;101708.13;5066711;28;20033;-63
2023/09/08 01:30:16;;;;;;;;;;;;;;;19.57;100.00;101710.22;5067744;28;20136;-55
2023/09/08 01:32:43;;;;;;;16.13;12.00;;;;;;;19.53;100.00;101704.16;5064597;28;20034;-63
2023/09/08 01:35:09;;;;;;;17.33;12.98;;;;;;;19.50;100.00;101709.69;5099896;28;20478;-62
2023/09/08 01:37:34;;;;;;;16.23;12.50;;;;;;;19.47;100.00;101717.03;5066266;28;20519;-65
2023/09/08 01:40:00;;;;;;;15.65;13.13;;;;;;;19.45;100.00;101717.13;5067319;28;20029;-64
2023/09/08 01:42:25;;;;;;;14.95;13.00;;;;;;;19.41;100.00;101721.78;5066703;28;20052;-59
2023/09/08 01:44:50;;;;;;;16.60;13.00;;;;;;;19.38;100.00;101721.13;5085222;28;20111;-63
2023/09/08 01:47:16;;;;;;;17.40;13.18;;;;;;;19.33;100.00;101718.69;5087010;28;20111;-63
2023/09/08 01:49:42;;;;;;;16.50;13.40;;;;;;;19.31;100.00;101718.78;5071155;28;20360;-63
2023/09/08 01:52:07;;;;;;;18.45;12.82;;;;;;;19.27;100.00;101717.22;5067187;28;20723;-63
2023/09/08 01:54:32;;;;;;;15.27;12.25;;;;;;;19.26;100.00;101722.69;5065739;28;20047;-65
2023/09/08 01:56:58;;;;;;;17.05;13.90;;;;;;;19.24;100.00;101714.75;5067447;28;20082;-62
2023/09/08 01:59:23;;;;;;;17.45;13.05;;;;;;;19.23;100.00;101706.81;5066717;28;20021;-58
2023/09/08 02:01:48;;;;;;;17.08;12.82;;;;;;;19.22;100.00;101705.06;5067768;28;20416;-64
2023/09/08 02:04:14;;;;;;;17.15;13.30;;;;;;;19.17;100.00;101708.88;5079017;28;20512;-65
2023/09/08 02:06:39;;;;;;;17.60;13.77;;;;;;;19.15;100.00;101705.41;5087189;28;20024;-64
2023/09/08 02:09:04;;;;;;;17.40;13.45;;;;;;;19.12;100.00;101700.28;5075500;28;20025;-63
2023/09/08 02:11:30;;;;;;;14.80;12.70;;;;;;;19.10;100.00;101706.63;5066916;28;20040;-64
2023/09/08 02:13:55;;;;;;;17.42;13.80;;;;;;;19.05;100.00;101704.19;5066045;28;20020;-63
2023/09/08 02:16:20;;;;;;;17.75;13.60;;;;;;;19.05;100.00;101701.50;5066976;28;20044;-65
2023/09/08 02:18:46;;;;;;;17.02;14.13;;;;;;;19.01;100.00;101702.63;5070065;28;20047;-62
2023/09/08 02:21:11;;;;;;;16.13;13.70;;;;;;;18.99;100.00;101696.53;5071524;28;20558;-53
2023/09/08 02:23:37;;;;;;;16.77;14.40;;;;;;;18.96;100.00;101699.38;5070807;28;20052;-63
2023/09/08 02:26:02;;;;;;;18.80;14.25;;;;;;;18.98;100.00;101694.81;5091258;28;20032;-64
2023/09/08 02:28:28;;;;;;;20.80;14.23;;;;;;;18.98;100.00;101698.34;5090312;28;20032;-65
2023/09/08 02:30:54;;;;;;;18.15;14.23;;;;;;;18.99;100.00;101700.06;5070697;28;20510;-62
2023/09/08 02:33:19;;;;;;;19.55;13.82;;;;;;;18.99;100.00;101713.41;5071366;28;20576;-64
2023/09/08 02:35:44;;;;;;;18.92;14.57;;;;;;;18.98;100.00;101709.03;5087702;28;20488;-66
2023/09/08 02:38:10;;;;;;;19.65;13.77;;;;;;;18.98;100.00;101709.03;5084338;28;20028;-59
2023/09/08 02:40:35;;;;;;;17.33;14.15;;;;;;;18.96;100.00;101705.56;5069129;28;20688;-63
2023/09/08 02:43:01;;;;;;;23.38;14.95;;;;;;;18.93;100.00;101705.75;5070767;28;20579;-61
2023/09/08 02:45:27;;;;;;;19.50;14.07;;;;;;;18.91;100.00;101702.31;5081617;28;20058;-59
2023/09/08 02:47:52;;;;;;;17.40;14.40;;;;;;;18.89;100.00;101710.41;5090218;28;20382;-60
2023/09/08 02:50:18;;;;;;;16.65;13.98;;;;;;;18.87;100.00;101701.59;5079558;28;20233;-64
2023/09/08 02:52:44;;;;;;;17.00;14.55;;;;;;;18.87;100.00;101698.94;5070446;28;20020;-63
2023/09/08 02:55:09;;;;;;;17.38;13.95;;;;;;;18.87;100.00;101695.44;5076707;28;20046;-65
2023/09/08 02:57:34;;;;;;;19.35;14.30;;;;;;;18.90;100.00;101701.44;5090481;28;20059;-64
2023/09/08 03:00:00;;;;;;;24.25;15.27;;;;;;;18.94;100.00;101692.31;5085260;28;20029;-63
2023/09/08 03:02:25;;;;;;;19.55;14.80;;;;;;;18.93;100.00;101695.94;5069713;28;20458;-62
2023/09/08 03:04:51;;;;;;;21.20;14.40;;;;;;;18.95;100.00;101687.84;5069396;28;20500;-61
2023/09/08 03:07:16;;;;;;;19.00;14.65;;;;;;;18.97;100.00;101685.06;5068427;28;20028;-63
2023/09/08 03:09:42;;;;;;;16.98;13.65;;;;;;;18.97;100.00;101693.97;5068242;28;20025;-60
2023/09/08 03:12:07;;;;;;;18.92;14.35;;;;;;;18.98;100.00;101690.34;5090206;28;20024;-64
2023/09/08 03:14:33;;;;;;;16.80;12.88;;;;;;;18.97;100.00;101685.94;5088982;28;20458;-64
2023/09/08 03:16:58;;;;;;;20.80;14.27;;;;;;;18.93;100.00;101690.59;5089506;28;20024;-65
2023/09/08 03:19:23;;;;;;;21.58;15.20;;;;;;;18.94;100.00;101684.28;5089408;28;20047;-63
2023/09/08 03:21:49;;;;;;;18.88;14.38;;;;;;;18.94;100.00;101686.97;5089632;28;20035;-64
2023/09/08 03:24:14;;;;;;;16.55;13.80;;;;;;;18.93;100.00;101682.56;5088609;28;20028;-65
2023/09/08 03:26:40;;;;;;;16.73;13.18;;;;;;;18.97;100.00;101682.41;5072888;28;20063;-54
2023/09/08 03:29:06;;;;;;;20.83;14.30;;;;;;;19.00;100.00;101687.56;5069334;28;20459;-62
2023/09/08 03:31:31;;;;;;;20.92;14.65;;;;;;;18.96;100.00;101673.53;5080518;28;20470;-63
2023/09/08 03:33:57;;;;;;;20.30;15.05;;;;;;;18.96;100.00;101678.03;5071509;28;20022;-63
2023/09/08 03:36:22;;;;;;;19.60;14.38;;;;;;;18.96;100.00;101678.88;5088490;28;20051;-60
2023/09/08 03:38:48;;;;;;;17.60;14.38;;;;;;;18.95;100.00;101677.16;5089004;28;20103;-63
2023/09/08 03:41:13;;;;;;;21.85;14.50;;;;;;;18.93;100.00;101671.03;5088357;28;20139;-64
2023/09/08 03:43:38;;;;;;;22.20;14.27;;;;;;;18.90;100.00;101674.72;5089429;28;20028;-62
2023/09/08 03:46:04;;;;;;;18.38;14.32;;;;;;;18.90;100.00;101669.41;5072068;28;20739;-62
2023/09/08 03:48:29;;;;;;;16.35;13.63;;;;;;;18.92;100.00;101669.31;5067743;28;20025;-63
2023/09/08 03:50:55;;;;;;;15.50;12.75;;;;;;;18.94;100.00;101675.44;5068677;28;20040;-63
2023/09/08 03:53:20;;;;;;;18.10;14.07;;;;;;;18.95;100.00;101671.81;5087923;28;20028;-62
2023/09/08 03:55:45;;;;;;;18.30;14.45;;;;;;;18.96;100.00;101662.00;5069733;28;20035;-59
2023/09/08 03:58:11;;;;;;;18.20;13.82;;;;;;;18.99;100.00;101662.66;5088017;28;20209;-63
2023/09/08 04:00:36;;;;;;;17.30;13.30;;;;;;;18.97;100.00;101661.91;5087841;28;20074;-62
2023/09/08 04:03:02;;;;;;;17.65;14.15;;;;;;;18.99;100.00;101665.34;5088823;28;20389;-60
2023/09/08 04:05:28;;;;;;;16.52;14.52;;;;;;;18.98;100.00;101662.75;5072360;28;20016;-62
2023/09/08 04:07:53;;;;;;;18.63;14.10;;;;;;;18.96;100.00;101670.84;5055330;28;20421;-64
2023/09/08 04:10:19;;;;;;;18.50;14.57;;;;;;;18.94;100.00;101662.94;5067330;28;20032;-63
2023/09/08 04:12:44;;;;;;;17.52;14.43;;;;;;;18.89;100.00;101672.16;5068145;28;20029;-59
2023/09/08 04:15:10;;;;;;;19.13;15.18;;;;;;;18.90;100.00;101665.88;5074885;28;20024;-63
2023/09/08 04:17:36;;;;;;;21.27;13.75;;;;;;;18.96;100.00;101662.00;5088797;28;20017;-63
2023/09/08 04:20:06;;;;;;;19.67;13.35;;;;;;;19.04;100.00;101665.09;5081957;28;20060;-64
2023/09/08 04:22:32;;;;;;;16.33;14.27;;;;;;;19.02;100.00;101667.84;5068108;28;20387;-54
2023/09/08 04:24:57;;;;;;;18.38;12.77;;;;;;;19.04;100.00;101665.09;5068728;28;20378;-62
2023/09/08 04:27:23;;;;;;;16.77;12.73;;;;;;;19.03;100.00;101666.03;5088287;28;20031;-62
2023/09/08 04:29:49;;;;;;;18.35;14.50;;;;;;;19.03;100.00;101668.72;5085261;28;20044;-60
2023/09/08 04:32:14;;;;;;;18.30;13.60;;;;;;;18.96;100.00;101668.19;5068447;28;20021;-62
2023/09/08 04:34:41;;;;;;;17.48;14.13;;;;;;;18.89;100.00;101672.16;5067622;28;20028;-61
2023/09/08 04:37:06;;;;;;;19.55;13.90;;;;;;;18.85;100.00;101666.13;5066610;28;20479;-61
2023/09/08 04:39:32;;;;;;;18.33;14.20;;;;;;;18.83;100.00;101662.69;5065804;28;20025;-64
2023/09/08 04:41:58;;;;;;;17.70;13.95;;;;;;;18.82;100.00;101660.97;5079253;28;20479;-61
2023/09/08 04:44:23;;;;;;;16.90;14.05;;;;;;;18.85;100.00;101665.25;5066167;28;20038;-60
2023/09/08 04:46:49;;;;;;;18.58;14.50;;;;;;;18.77;100.00;101668.34;5080941;28;20024;-63
2023/09/08 04:49:14;;;;;;;15.60;13.90;;;;;;;18.75;100.00;101671.13;5088157;28;20032;-64
2023/09/08 04:51:39;;;;;;;20.70;14.20;;;;;;;18.75;100.00;101675.59;5073775;28;20379;-58
2023/09/08 04:54:05;;;;;;;17.17;13.73;;;;;;;18.73;100.00;101672.16;5066522;28;20044;-62
2023/09/08 04:56:30;;;;;;;18.27;13.82;;;;;;;18.69;100.00;101672.31;5075399;28;20050;-64
2023/09/08 04:58:57;;;;;;;18.42;14.13;;;;;;;18.68;100.00;101673.28;5086420;28;20115;-63
2023/09/08 05:01:23;;;;;;;25.08;14.38;;;;;;;18.66;100.00;101666.31;5075964;28;20056;-62
2023/09/08 05:03:48;;;;;;;18.05;14.88;;;;;;;18.61;100.00;101679.03;5067435;28;20519;-63
2023/09/08 05:06:13;;;;;;;17.20;14.30;;;;;;;18.58;100.00;101682.72;5074424;28;20016;-62
2023/09/08 05:08:39;;;;;;;16.48;14.27;;;;;;;18.56;100.00;101681.94;5086853;28;20114;-62
2023/09/08 05:11:04;;;;;;;21.05;14.85;;;;;;;18.55;100.00;101678.41;5080825;28;20029;-64
2023/09/08 05:13:30;;;;;;;18.38;15.30;;;;;;;18.55;100.00;101675.72;5068786;28;20386;-57
2023/09/08 05:16:00;;;;;;;22.40;14.45;;;;;;;18.53;100.00;101682.09;5080344;28;20103;-62
2023/09/08 05:18:26;;;;;;;18.40;14.77;;;;;;;18.53;100.00;101682.09;5067147;28;20021;-60
2023/09/08 05:20:52;;;;;;;20.77;15.55;;;;;;;18.51;100.00;101674.19;5067722;28;20025;-63
2023/09/08 05:23:18;;;;;;;19.27;14.68;;;;;;;18.52;100.00;101685.72;5067216;28;20029;-64
2023/09/08 05:25:44;;;;;;;18.65;14.00;;;;;;;18.53;100.00;101682.09;5067685;28;20020;-65
2023/09/08 05:28:10;;;;;;;16.55;14.35;;;;;;;18.57;100.00;101689.00;5062010;28;20112;-63
2023/09/08 05:30:35;;;;;;;20.40;14.98;;;;;;;18.58;100.00;101685.41;5060841;28;20132;-60
2023/09/08 05:33:01;;;;;;;23.02;15.70;;;;;;;18.61;100.00;101687.03;5048034;28;20112;-62
2023/09/08 05:35:26;;;;;;;20.60;15.30;;;;;;;18.63;100.00;101683.31;5061082;28;20110;-55
2023/09/08 05:37:52;;;;;;;26.95;15.80;;;;;;;18.67;100.00;101690.22;5056261;28;20230;-62
2023/09/08 05:40:18;;;;;;;24.85;15.05;;;;;;;18.71;100.00;101690.03;5068750;28;20514;-62
2023/09/08 05:42:44;;;;;;;24.60;15.50;;;;;;;18.68;100.00;101689.28;5080591;28;20020;-65
2023/09/08 05:45:09;;;;;;;21.38;15.07;;;;;;;18.72;100.00;101699.81;5072037;28;20031;-67
2023/09/08 05:47:35;;;;;;;20.88;16.38;;;;;;;18.73;100.00;101694.38;5067433;28;20463;-68
2023/09/08 05:50:01;;;;;;;20.65;15.50;;;;;;;18.76;100.00;101704.03;5098756;28;20036;-66
2023/09/08 05:52:28;;;;;;;20.60;14.90;;;;;;;18.77;100.00;101703.94;5069403;28;20028;-67
2023/09/08 05:54:53;;;;;;;24.00;15.45;;;;;;;18.81;100.00;101712.63;5070022;28;20027;-65
2023/09/08 05:57:19;;;;;;;17.95;14.82;;;;;;;18.83;100.00;101702.72;5071501;28;20032;-67
2023/09/08 05:59:44;;;;;;;22.58;15.23;;;;;;;18.87;100.00;101706.94;5070612;28;20654;-63
2023/09/08 06:02:09;;;;;;;19.23;15.05;;;;;;;18.92;100.00;101704.03;5070312;28;20122;-66
2023/09/08 06:04:35;;;;;;;18.95;14.13;;;;;;;19.07;100.00;101704.97;5070222;28;20029;-66
2023/09/08 06:07:00;;;;;;;18.35;15.10;;;;;;;19.14;100.00;101709.03;5069532;28;20028;-64
2023/09/08 06:09:25;;;;;;;20.33;14.52;;;;;;;19.19;100.00;101712.34;5069049;28;20021;-62
2023/09/08 06:11:51;;;;;;;18.70;15.40;;;;;;;19.23;100.00;101713.00;5068517;28;20032;-65
2023/09/08 06:14:16;;;;;;;18.35;14.75;;;;;;;19.29;100.00;101717.13;5069464;28;20025;-66
2023/09/08 06:16:42;;;;;;;19.05;14.40;;;;;;;19.35;100.00;101722.13;5075834;28;20032;-62
2023/09/08 06:19:07;;;;;;;21.95;15.10;;;;;;;19.43;100.00;101719.03;5088448;28;20020;-63
2023/09/08 06:21:32;;;;;;;17.52;13.70;;;;;;;19.52;100.00;101729.19;5068442;28;20097;-68
2023/09/08 06:23:58;;;;;;;17.15;14.68;;;;;;;19.60;100.00;101726.06;5069555;28;20020;-67
2023/09/08 06:26:23;;;;;;;19.38;14.32;;;;;;;19.65;100.00;101729.31;5068970;28;20062;-67
2023/09/08 06:28:48;;;;;;;17.50;14.30;;;;;;;19.74;100.00;101725.25;5070636;28;20175;-62
2023/09/08 06:31:14;;;;;;;24.80;13.73;;;;;;;19.84;100.00;101720.22;5070110;28;20150;-72
2023/09/08 06:33:40;;;;;;;21.77;14.48;;;;;;;19.90;100.00;101716.31;5070380;28;20060;-71
2023/09/08 06:36:06;;;;;;;23.88;14.63;;;;;;;19.94;100.00;101705.34;5070259;28;20052;-62
2023/09/08 06:38:32;;;;;;;19.73;13.70;;;;;;;20.02;100.00;101714.75;5069353;28;20508;-73
2023/09/08 06:40:58;;;;;;;18.88;13.98;;;;;;;20.11;100.00;101716.88;5070197;28;20162;-66
2023/09/08 06:43:23;;;;;;;22.55;14.35;;;;;;;20.23;100.00;101711.72;5083399;28;20032;-71
2023/09/08 06:45:49;;;;;;;14.95;12.73;;;;;;;20.28;100.00;101709.63;5090313;28;20117;-63
2023/09/08 06:48:15;;;;;;;15.68;13.77;;;;;;;20.38;100.00;101709.94;5077303;28;20035;-68
2023/09/08 06:50:40;;;;;;;18.85;13.35;;;;;;;20.44;100.00;101707.72;5070332;28;20085;-73
2023/09/08 06:53:06;;;;;;;20.40;13.90;;;;;;;20.56;100.00;101713.28;5078514;28;20024;-73
2023/09/08 06:55:31;;;;;;;22.27;14.23;;;;;;;20.56;100.00;101715.94;5091121;28;20036;-65
2023/09/08 06:57:57;;;;;;;17.65;14.20;;;;;;;20.58;100.00;101716.69;5083268;28;20028;-72
2023/09/08 07:00:22;;;;;;;15.45;13.90;;;;;;;20.69;100.00;101714.22;5070439;28;20483;-58
2023/09/08 07:02:49;;;;;;;20.77;14.27;;;;;;;20.72;100.00;101715.84;5072866;28;20054;-62
2023/09/08 07:05:15;;;;;;;20.27;14.65;;;;;;;20.79;100.00;101717.16;5073365;28;20020;-72
2023/09/08 07:07:41;;;;;;;17.48;14.23;;;;;;;20.87;100.00;101716.69;5070739;28;20489;-68
2023/09/08 07:10:07;;;;;;;18.30;14.65;;;;;;;20.95;100.00;101722.44;5090357;28;20032;-75
2023/09/08 07:12:32;;;;;;;17.58;14.45;;;;;;;21.05;100.00;101717.34;5090191;28;20107;-73
2023/09/08 07:14:59;;;;;;;19.40;15.32;;;;;;;21.07;100.00;101728.81;5090068;28;20032;-69
2023/09/08 07:17:25;;;;;;;29.58;15.95;;;;;;;21.14;100.00;101723.94;5089357;28;20035;-75
2023/09/08 07:19:50;;;;;;;21.17;15.27;;;;;;;21.23;100.00;101714.44;5086073;28;20032;-70
2023/09/08 07:22:16;;;;;;;19.95;15.38;;;;;;;21.34;100.00;101713.69;5090286;28;20085;-70
2023/09/08 07:24:41;;;;;;;20.40;13.38;;;;;;;21.48;100.00;101712.78;5079326;28;20016;-71
2023/09/08 07:27:06;;;;;;;18.13;15.07;;;;;;;21.51;100.00;101714.41;5069791;28;20362;-74
2023/09/08 07:29:32;;;;;;;14.80;12.18;;;;;;;21.63;100.00;101710.91;5069103;28;20040;-68
2023/09/08 07:31:57;;;;;;;18.10;14.10;;;;;;;21.74;100.00;101712.88;5070234;28;20032;-71
2023/09/08 07:34:23;;;;;;;18.50;14.50;;;;;;;21.82;100.00;101720.41;5073614;28;20465;-67
2023/09/08 07:36:48;;;;;;;18.27;14.40;;;;;;;21.93;100.00;101723.22;5078498;28;20053;-64
2023/09/08 07:39:13;;;;;;;19.67;14.13;;;;;;;22.04;100.00;101729.69;5067963;28;20494;-59
2023/09/08 07:41:40;;;;;;;15.88;13.25;;;;;;;22.10;100.00;101723.88;5049169;28;20078;-68
2023/09/08 07:44:08;;;;;;;20.20;12.85;;;;;;;22.20;100.00;101727.66;5049867;28;20014;-68
2023/09/08 07:46:33;;;;;;;24.40;15.32;;;;;;;22.32;100.00;101728.63;5084311;28;20394;-63
2023/09/08 07:48:59;;;;;;;18.52;14.27;;;;;;;22.36;100.00;101731.09;5088984;28;20035;-73
2023/09/08 07:51:25;;;;;;;19.55;15.02;;;;;;;22.46;100.00;101722.25;5087680;28;20040;-72
2023/09/08 07:53:50;;;;;;;20.00;14.05;;;;;;;22.57;100.00;101718.84;5089322;28;20031;-61
2023/09/08 07:56:15;;;;;;;18.13;14.70;;;;;;;22.64;100.00;101721.97;5088314;28;20055;-72
2023/09/08 07:58:41;;;;;;;18.25;12.98;;;;;;;22.75;100.00;101728.41;5088885;28;20028;-73
2023/09/08 08:01:07;;;;;;;23.77;16.17;;;;;;;22.83;100.00;101728.69;5086638;28;20024;-72
2023/09/08 08:03:34;;;;;;;20.65;14.57;;;;;;;22.96;100.00;101732.19;5089212;28;20016;-68
2023/09/08 08:06:00;;;;;;;24.02;15.48;;;;;;;23.03;100.00;101723.69;5087071;28;20035;-68
2023/09/08 08:08:25;;;;;;;17.85;15.07;;;;;;;23.07;100.00;101725.19;5087472;28;20024;-65
2023/09/08 08:10:50;;;;;;;25.35;14.48;;;;;;;23.16;100.00;101727.19;5088675;28;20112;-67
2023/09/08 08:13:15;;;;;;;16.65;13.82;;;;;;;23.22;100.00;101724.06;5089485;28;20494;-61
2023/09/08 08:15:42;;;;;;;22.00;15.00;;;;;;;23.27;100.00;101722.84;5086499;28;20016;-69
2023/09/08 08:18:11;;;;;;;18.75;15.07;;;;;;;23.37;100.00;101721.22;5087734;28;20430;-73
2023/09/08 08:20:36;;;;;;;23.88;16.05;;;;;;;23.42;100.00;101719.03;5077713;28;20032;-74
2023/09/08 08:23:03;;;;;;;21.42;15.75;;;;;;;23.48;100.00;101717.72;5067241;28;20073;-74
2023/09/08 08:25:28;;;;;;;22.92;17.48;;;;;;;23.54;100.00;101724.47;5067969;28;20036;-74
2023/09/08 08:27:54;;;;;;;21.20;15.05;;;;;;;23.62;100.00;101723.91;5067943;28;20028;-72
2023/09/08 08:30:19;;;;;;;21.77;16.83;;;;;;;23.68;100.00;101724.28;5099703;28;20041;-70
2023/09/08 08:32:45;;;;;;;16.13;13.60;;;;;;;23.78;100.00;101724.41;5067997;28;20025;-73
2023/09/08 08:35:11;;;;;;;18.60;13.88;;;;;;;23.91;100.00;101720.78;5066953;28;20036;-65
2023/09/08 08:37:36;;;;;;;23.38;17.20;;;;;;;24.05;100.00;101725.94;5079611;28;20228;-68
2023/09/08 08:40:03;;;;;;;17.95;14.10;;;;;;;24.15;100.00;101727.97;5087844;28;20107;-59
2023/09/08 08:42:33;;;;;;;21.73;16.27;;;;;;;24.20;100.00;101723.94;5087371;28;20046;-73
2023/09/08 08:44:59;;;;;;;20.25;14.63;;;;;;;24.37;100.00;101724.44;5087941;28;20024;-71
2023/09/08 08:47:26;;;;;;;19.85;14.90;;;;;;;24.50;100.00;101731.56;5082978;28;20082;-72
2023/09/08 08:49:53;;;;;;;23.10;15.57;;;;;;;24.48;100.00;101728.97;5067271;28;20021;-67
2023/09/08 08:52:19;;;;;;;24.88;15.07;;;;;;;24.66;100.00;101734.72;5069261;28;20086;-71
2023/09/08 08:54:45;;;;;;;17.23;14.30;;;;;;;24.72;100.00;101733.38;5087458;28;20025;-73
2023/09/08 08:57:11;;;;;;;18.40;14.98;;;;;;;24.81;100.00;101726.38;5072099;28;20025;-72
2023/09/08 08:59:37;;;;;;;15.18;12.30;;;;;;;24.96;100.00;101740.47;5068558;28;20059;-72
2023/09/08 09:02:05;;;;;;;26.70;14.23;;;;;;;25.06;100.00;101733.34;5066200;28;20120;-70
2023/09/08 09:04:31;;;;;;;19.73;14.02;;;;;;;25.22;100.00;101741.03;5081172;28;20460;-71
2023/09/08 09:06:57;;;;;;;19.63;14.40;;;;;;;25.32;100.00;101734.88;5086261;28;20024;-60
2023/09/08 09:09:23;;;;;;;18.13;13.75;;;;;;;25.37;100.00;101738.03;5073868;28;20020;-61
2023/09/08 09:11:49;;;;;;;20.65;14.25;;;;;;;25.31;100.00;101739.41;5066436;28;20024;-65
2023/09/08 09:14:14;;;;;;;23.52;13.68;;;;;;;25.52;100.00;101746.69;5076232;28;20503;-71
2023/09/08 09:16:41;;;;;;;18.58;15.15;;;;;;;25.59;100.00;101742.50;5082355;28;20036;-72
2023/09/08 09:19:06;;;;;;;18.58;15.70;;;;;;;25.60;100.00;101740.69;5072694;28;20020;-71
2023/09/08 09:21:43;;;;;;;24.23;15.32;;;;;;;25.61;100.00;101745.06;5087160;28;20439;-72
2023/09/08 09:24:14;;;;;;;20.90;15.68;;;;;;;25.71;100.00;101742.47;5078346;28;20032;-73
2023/09/08 09:26:39;;;;;;;20.08;16.08;;;;;;;25.77;100.00;101739.25;5066430;28;20490;-70
2023/09/08 09:29:13;;;;;;;17.98;14.75;;;;;;;25.77;100.00;101736.56;5071318;28;20032;-69
2023/09/08 09:31:51;;;;;;;24.10;16.35;;;;;;;25.86;100.00;101745.72;5082783;28;20084;-71
2023/09/08 09:34:16;;;;;;;17.70;14.38;;;;;;;25.99;100.00;101742.81;5066548;28;20441;-72
2023/09/08 09:36:43;;;;;;;16.27;13.27;;;;;;;26.07;100.00;101739.44;5073668;28;20027;-71
2023/09/08 09:39:08;;;;;;;19.33;15.80;;;;;;;26.12;100.00;101737.19;5082031;28;20111;-70
2023/09/08 09:41:34;;;;;;;19.02;14.65;;;;;;;26.18;100.00;101733.97;5066014;28;20120;-69
2023/09/08 09:43:59;;;;;;;23.15;17.38;;;;;;;26.28;100.00;101739.44;5067495;28;20475;-69
2023/09/08 09:46:28;;;;;;;18.35;15.52;;;;;;;26.41;100.00;101736.53;5086704;28;20024;-64
2023/09/08 09:48:56;;;;;;;15.85;13.68;;;;;;;26.49;100.00;101733.16;5067339;28;20111;-70
2023/09/08 09:51:21;;;;;;;19.10;15.40;;;;;;;26.47;100.00;101730.59;5086930;28;20032;-72
2023/09/08 09:53:49;;;;;;;21.75;15.38;;;;;;;26.62;100.00;101730.22;5084658;28;20050;-61
2023/09/08 09:56:17;;;;;;;21.73;15.80;;;;;;;26.58;100.00;101726.09;5072139;28;20056;-66
2023/09/08 09:58:42;;;;;;;19.75;14.88;;;;;;;26.82;100.00;101732.97;5065918;28;20025;-63
2023/09/08 10:01:08;;;;;;;17.00;13.98;;;;;;;26.92;100.00;101723.03;5070255;28;20436;-65
2023/09/08 10:03:34;;;;;;;19.50;14.85;;;;;;;26.91;100.00;101723.19;5065798;28;20032;-71
2023/09/08 10:05:59;;;;;;;19.67;14.25;;;;;;;26.95;100.00;101722.78;5064781;28;20052;-65
2023/09/08 10:08:25;;;;;;;20.42;14.15;;;;;;;27.10;100.00;101730.50;5065754;28;20024;-72
2023/09/08 10:10:50;;;;;;;17.45;12.82;;;;;;;27.25;100.00;101729.13;5079154;28;20039;-70
2023/09/08 10:13:25;;;;;;;18.90;14.32;;;;;;;27.31;100.00;101724.97;5086623;28;20035;-61
2023/09/08 10:15:52;;;;;;;20.48;14.57;;;;;;;27.47;99.39;101732.53;5085875;28;20051;-72
2023/09/08 10:18:19;;;;;;;17.05;11.50;;;;;;;27.65;97.81;101734.53;5085126;28;20062;-72
2023/09/08 10:20:44;;;;;;;19.27;14.00;;;;;;;27.49;96.58;101727.84;5083703;28;20031;-71
2023/09/08 10:23:22;;;;;;;16.30;11.88;;;;;;;27.69;94.43;101733.25;5085694;28;20024;-70
2023/09/08 10:25:54;;;;;;;17.65;12.65;;;;;;;27.83;93.58;101737.38;5070035;28;20032;-72
2023/09/08 10:28:21;;;;;;;17.13;12.95;;;;;;;27.73;95.17;101729.28;5068834;28;20067;-65
2023/09/08 10:30:47;;;;;;;16.67;11.20;;;;;;;27.99;94.26;101738.63;5078414;28;20475;-71
2023/09/08 10:33:12;;;;;;;16.92;11.98;;;;;;;28.10;91.89;101735.75;5065425;28;20039;-70
2023/09/08 10:35:38;;;;;;;14.15;11.32;;;;;;;28.23;90.96;101732.69;5065051;28;20016;-70
2023/09/08 10:38:23;;;;;;;14.85;11.23;;;;;;;28.31;93.21;101723.88;5067269;28;20495;-61
2023/09/08 10:40:49;;;;;;;11.75;10.15;;;;;;;28.54;91.39;101725.34;5068824;28;20028;-71
2023/09/08 10:43:14;;;;;;;15.30;10.43;;;;;;;28.54;92.33;101725.34;5068239;28;20033;-69
2023/09/08 10:45:41;;;;;;;10.05;7.78;;;;;;;28.83;90.45;101721.63;5069683;28;20050;-71
2023/09/08 10:48:07;;;;;;;14.98;10.85;;;;;;;28.96;86.64;101719.41;5089813;28;20053;-67
2023/09/08 10:50:34;;;;;;;15.20;9.55;;;;;;;28.88;85.91;101722.88;5089346;28;20622;-74
2023/09/08 10:53:16;;;;;;;17.38;9.00;;;;;;;29.08;83.15;101720.03;5088908;28;20027;-70
2023/09/08 10:55:52;;;;;;;13.05;9.43;;;;;;;29.07;84.45;101722.94;5088233;28;20047;-66
2023/09/08 10:58:30;;;;;;;15.32;10.30;;;;;;;28.95;84.09;101722.31;5050088;28;20025;-65